sensor_id;sensor_type;location;lat;lon;timestamp;pressure;altitude;pressure_sealevel;temperature;humidity
31717;BME280;18301;51.076;17.046;2023-05-16T00:01:24;99463.28;;;12.24;93.75
31717;BME280;18301;51.076;17.046;2023-05-16T00:06:27;99464.16;;;12.15;93.31
31717;BME280;18301;51.076;17.046;2023-05-16T00:11:29;99461.88;;;12.20;93.61
31717;BME280;18301;51.076;17.046;2023-05-16T00:16:30;99466.44;;;12.19;93.55
31717;BME280;18301;51.076;17.046;2023-05-16T00:21:33;99477.66;;;12.25;93.17
31717;BME280;18301;51.076;17.046;2023-05-16T00:26:34;99478.66;;;12.24;92.99
31717;BME280;18301;51.076;17.046;2023-05-16T00:31:36;99480.66;;;12.21;92.82
31717;BME280;18301;51.076;17.046;2023-05-16T00:36:37;99482.38;;;12.23;92.38
31717;BME280;18301;51.076;17.046;2023-05-16T00:41:39;99479.25;;;12.17;92.47
31717;BME280;18301;51.076;17.046;2023-05-16T00:46:40;99486.63;;;12.15;92.52
31717;BME280;18301;51.076;17.046;2023-05-16T00:51:42;99483.25;;;12.13;92.83
31717;BME280;18301;51.076;17.046;2023-05-16T00:56:43;99479.09;;;12.19;92.73
31717;BME280;18301;51.076;17.046;2023-05-16T01:01:45;99491.75;;;12.18;92.91
31717;BME280;18301;51.076;17.046;2023-05-16T01:06:48;99486.50;;;12.17;92.48
31717;BME280;18301;51.076;17.046;2023-05-16T01:11:59;99493.94;;;11.95;93.03
31717;BME280;18301;51.076;17.046;2023-05-16T01:17:20;99500.59;;;11.82;93.24
31717;BME280;18301;51.076;17.046;2023-05-16T01:28:15;99510.44;;;11.83;94.74
31717;BME280;18301;51.076;17.046;2023-05-16T01:33:17;99513.84;;;11.85;94.39
31717;BME280;18301;51.076;17.046;2023-05-16T01:38:28;99518.38;;;11.84;94.53
31717;BME280;18301;51.076;17.046;2023-05-16T01:43:41;99525.09;;;11.70;94.80
31717;BME280;18301;51.076;17.046;2023-05-16T01:48:50;99528.47;;;11.53;95.86
31717;BME280;18301;51.076;17.046;2023-05-16T01:53:57;99537.03;;;11.58;95.34
31717;BME280;18301;51.076;17.046;2023-05-16T01:59:01;99537.16;;;11.66;95.27
31717;BME280;18301;51.076;17.046;2023-05-16T02:04:04;99528.19;;;11.75;95.05
31717;BME280;18301;51.076;17.046;2023-05-16T02:09:05;99545.97;;;11.78;94.44
31717;BME280;18301;51.076;17.046;2023-05-16T02:14:07;99549.00;;;11.85;93.97
31717;BME280;18301;51.076;17.046;2023-05-16T02:19:08;99544.56;;;11.84;93.69
31717;BME280;18301;51.076;17.046;2023-05-16T02:24:10;99539.03;;;11.85;93.35
31717;BME280;18301;51.076;17.046;2023-05-16T02:29:11;99541.75;;;11.85;93.25
31717;BME280;18301;51.076;17.046;2023-05-16T02:34:13;99550.72;;;11.86;92.81
31717;BME280;18301;51.076;17.046;2023-05-16T02:39:15;99540.56;;;11.78;93.28
31717;BME280;18301;51.076;17.046;2023-05-16T02:44:17;99543.56;;;11.75;93.35
31717;BME280;18301;51.076;17.046;2023-05-16T02:49:18;99554.94;;;11.79;93.17
31717;BME280;18301;51.076;17.046;2023-05-16T02:54:20;99558.38;;;11.81;92.91
31717;BME280;18301;51.076;17.046;2023-05-16T02:59:21;99554.66;;;11.72;93.79
31717;BME280;18301;51.076;17.046;2023-05-16T03:04:22;99555.94;;;11.78;92.99
31717;BME280;18301;51.076;17.046;2023-05-16T03:09:24;99554.94;;;11.79;92.98
31717;BME280;18301;51.076;17.046;2023-05-16T03:14:26;99563.50;;;11.84;92.79
31717;BME280;18301;51.076;17.046;2023-05-16T03:19:28;99562.97;;;11.90;92.62
31717;BME280;18301;51.076;17.046;2023-05-16T03:24:29;99561.53;;;12.05;91.91
31717;BME280;18301;51.076;17.046;2023-05-16T03:29:31;99549.84;;;12.14;91.31
31717;BME280;18301;51.076;17.046;2023-05-16T03:34:32;99556.69;;;12.09;91.30
31717;BME280;18301;51.076;17.046;2023-05-16T03:39:34;99561.50;;;12.15;91.28
31717;BME280;18301;51.076;17.046;2023-05-16T03:44:36;99579.75;;;12.23;91.79
31717;BME280;18301;51.076;17.046;2023-05-16T03:49:37;99581.28;;;12.35;91.47
31717;BME280;18301;51.076;17.046;2023-05-16T03:54:39;99580.13;;;12.47;91.48
31717;BME280;18301;51.076;17.046;2023-05-16T03:59:40;99590.47;;;12.61;91.02
31717;BME280;18301;51.076;17.046;2023-05-16T04:04:41;99610.41;;;12.70;90.21
31717;BME280;18301;51.076;17.046;2023-05-16T04:09:43;99621.78;;;12.74;89.84
31717;BME280;18301;51.076;17.046;2023-05-16T04:14:44;99625.66;;;12.81;89.63
31717;BME280;18301;51.076;17.046;2023-05-16T04:19:47;99633.31;;;12.85;89.40
31717;BME280;18301;51.076;17.046;2023-05-16T04:24:48;99640.00;;;12.91;89.19
31717;BME280;18301;51.076;17.046;2023-05-16T04:29:50;99651.91;;;13.08;88.73
31717;BME280;18301;51.076;17.046;2023-05-16T04:34:52;99648.47;;;13.16;88.68
31717;BME280;18301;51.076;17.046;2023-05-16T04:39:54;99641.31;;;13.34;88.78
31717;BME280;18301;51.076;17.046;2023-05-16T04:44:56;99607.66;;;13.27;86.97
31717;BME280;18301;51.076;17.046;2023-05-16T04:49:57;99618.06;;;13.59;86.96
31717;BME280;18301;51.076;17.046;2023-05-16T04:54:58;99629.44;;;13.63;86.37
31717;BME280;18301;51.076;17.046;2023-05-16T05:00:01;99640.44;;;14.07;86.56
31717;BME280;18301;51.076;17.046;2023-05-16T05:05:03;99657.88;;;14.22;85.32
31717;BME280;18301;51.076;17.046;2023-05-16T05:10:05;99675.53;;;14.44;85.60
31717;BME280;18301;51.076;17.046;2023-05-16T05:15:08;99692.47;;;14.56;85.05
31717;BME280;18301;51.076;17.046;2023-05-16T05:20:10;99700.22;;;14.68;83.81
31717;BME280;18301;51.076;17.046;2023-05-16T05:25:13;99708.00;;;14.81;83.28
31717;BME280;18301;51.076;17.046;2023-05-16T05:30:14;99715.56;;;14.95;83.41
31717;BME280;18301;51.076;17.046;2023-05-16T05:35:16;99722.59;;;15.24;83.01
31717;BME280;18301;51.076;17.046;2023-05-16T05:40:18;99724.09;;;15.53;80.66
31717;BME280;18301;51.076;17.046;2023-05-16T05:45:19;99735.47;;;15.82;79.28
31717;BME280;18301;51.076;17.046;2023-05-16T05:50:20;99723.28;;;15.60;78.39
31717;BME280;18301;51.076;17.046;2023-05-16T05:55:22;99721.13;;;15.64;77.02
31717;BME280;18301;51.076;17.046;2023-05-16T06:00:23;99718.00;;;15.59;76.80
31717;BME280;18301;51.076;17.046;2023-05-16T06:05:25;99717.59;;;15.72;77.44
31717;BME280;18301;51.076;17.046;2023-05-16T06:10:27;99717.19;;;15.93;77.56
31717;BME280;18301;51.076;17.046;2023-05-16T06:15:28;99716.16;;;15.94;76.28
31717;BME280;18301;51.076;17.046;2023-05-16T06:20:30;99728.81;;;16.11;75.78
31717;BME280;18301;51.076;17.046;2023-05-16T06:25:32;99725.38;;;16.09;76.24
31717;BME280;18301;51.076;17.046;2023-05-16T06:30:33;99732.41;;;16.20;75.77
31717;BME280;18301;51.076;17.046;2023-05-16T06:35:35;99737.63;;;16.05;77.44
31717;BME280;18301;51.076;17.046;2023-05-16T06:40:36;99737.16;;;16.18;76.41
31717;BME280;18301;51.076;17.046;2023-05-16T06:45:38;99741.81;;;16.42;76.32
31717;BME280;18301;51.076;17.046;2023-05-16T06:50:39;99753.97;;;16.13;75.21
31717;BME280;18301;51.076;17.046;2023-05-16T06:55:41;99766.81;;;15.95;76.78
31717;BME280;18301;51.076;17.046;2023-05-16T07:00:42;99757.09;;;16.34;76.28
31717;BME280;18301;51.076;17.046;2023-05-16T07:05:44;99766.34;;;16.58;75.20
31717;BME280;18301;51.076;17.046;2023-05-16T07:10:46;99772.91;;;16.98;75.52
31717;BME280;18301;51.076;17.046;2023-05-16T07:15:47;99771.88;;;17.32;73.15
31717;BME280;18301;51.076;17.046;2023-05-16T07:20:49;99757.88;;;17.43;71.88
31717;BME280;18301;51.076;17.046;2023-05-16T07:25:51;99751.25;;;17.29;72.80
31717;BME280;18301;51.076;17.046;2023-05-16T07:30:53;99755.09;;;17.59;71.67
31717;BME280;18301;51.076;17.046;2023-05-16T07:35:55;99749.50;;;17.36;72.23
31717;BME280;18301;51.076;17.046;2023-05-16T07:41:15;99757.00;;;17.59;72.34
31717;BME280;18301;51.076;17.046;2023-05-16T07:46:16;99762.25;;;17.68;71.54
31717;BME280;18301;51.076;17.046;2023-05-16T07:51:18;99766.13;;;17.90;71.05
31717;BME280;18301;51.076;17.046;2023-05-16T07:56:19;99773.09;;;18.01;70.55
31717;BME280;18301;51.076;17.046;2023-05-16T08:01:21;99784.88;;;18.02;71.01
31717;BME280;18301;51.076;17.046;2023-05-16T08:06:23;99785.53;;;17.15;72.39
31717;BME280;18301;51.076;17.046;2023-05-16T08:11:25;99787.88;;;17.43;73.07
31717;BME280;18301;51.076;17.046;2023-05-16T08:16:27;99794.28;;;17.75;71.62
31717;BME280;18301;51.076;17.046;2023-05-16T08:21:28;99796.19;;;18.30;70.45
31717;BME280;18301;51.076;17.046;2023-05-16T08:26:32;99803.78;;;18.43;67.96
31717;BME280;18301;51.076;17.046;2023-05-16T08:31:33;99823.88;;;18.18;70.10
31717;BME280;18301;51.076;17.046;2023-05-16T08:36:36;99829.41;;;17.94;69.71
31717;BME280;18301;51.076;17.046;2023-05-16T08:41:38;99831.81;;;17.89;70.61
31717;BME280;18301;51.076;17.046;2023-05-16T08:46:40;99827.63;;;18.17;70.74
31717;BME280;18301;51.076;17.046;2023-05-16T08:51:42;99835.16;;;18.55;67.95
31717;BME280;18301;51.076;17.046;2023-05-16T08:56:44;99839.91;;;18.61;66.78
31717;BME280;18301;51.076;17.046;2023-05-16T09:01:46;99849.81;;;18.93;64.60
31717;BME280;18301;51.076;17.046;2023-05-16T09:06:48;99856.53;;;18.43;65.82
31717;BME280;18301;51.076;17.046;2023-05-16T09:11:50;99857.84;;;18.95;65.26
31717;BME280;18301;51.076;17.046;2023-05-16T09:17:08;99875.09;;;18.95;64.17
31717;BME280;18301;51.076;17.046;2023-05-16T09:22:13;99849.56;;;18.80;65.54
31717;BME280;18301;51.076;17.046;2023-05-16T09:27:15;99865.81;;;18.34;63.77
31717;BME280;18301;51.076;17.046;2023-05-16T09:32:17;99869.06;;;18.77;64.12
31717;BME280;18301;51.076;17.046;2023-05-16T09:37:18;99882.28;;;19.42;63.67
31717;BME280;18301;51.076;17.046;2023-05-16T09:42:20;99898.88;;;19.87;62.38
31717;BME280;18301;51.076;17.046;2023-05-16T09:47:26;99899.56;;;19.20;63.29
31717;BME280;18301;51.076;17.046;2023-05-16T09:52:28;99900.69;;;19.48;61.82
31717;BME280;18301;51.076;17.046;2023-05-16T09:57:30;99900.09;;;19.84;62.63
31717;BME280;18301;51.076;17.046;2023-05-16T10:02:31;99907.84;;;19.81;62.89
31717;BME280;18301;51.076;17.046;2023-05-16T10:07:34;99914.59;;;19.70;62.46
31717;BME280;18301;51.076;17.046;2023-05-16T10:12:37;99901.50;;;19.80;63.08
31717;BME280;18301;51.076;17.046;2023-05-16T10:17:39;99902.22;;;19.51;63.05
31717;BME280;18301;51.076;17.046;2023-05-16T10:22:42;99890.28;;;19.90;62.86
31717;BME280;18301;51.076;17.046;2023-05-16T10:27:45;99902.34;;;19.81;59.11
31717;BME280;18301;51.076;17.046;2023-05-16T10:32:48;99906.38;;;20.08;59.46
31717;BME280;18301;51.076;17.046;2023-05-16T10:37:52;99905.88;;;19.89;61.64
31717;BME280;18301;51.076;17.046;2023-05-16T10:43:02;99911.22;;;19.83;62.70
31717;BME280;18301;51.076;17.046;2023-05-16T10:48:05;99901.00;;;19.76;62.75
31717;BME280;18301;51.076;17.046;2023-05-16T10:53:15;99905.16;;;19.49;63.10
31717;BME280;18301;51.076;17.046;2023-05-16T11:19:54;99893.06;;;20.34;61.58
31717;BME280;18301;51.076;17.046;2023-05-16T11:25:06;99897.16;;;19.86;62.52
31717;BME280;18301;51.076;17.046;2023-05-16T11:30:13;99892.47;;;19.34;65.08
31717;BME280;18301;51.076;17.046;2023-05-16T11:35:16;99884.22;;;18.88;65.53
31717;BME280;18301;51.076;17.046;2023-05-16T11:40:18;99891.34;;;18.97;65.87
31717;BME280;18301;51.076;17.046;2023-05-16T11:45:21;99879.31;;;19.29;65.52
31717;BME280;18301;51.076;17.046;2023-05-16T11:50:25;99891.66;;;19.25;64.86
31717;BME280;18301;51.076;17.046;2023-05-16T11:55:28;99893.91;;;19.21;64.96
31717;BME280;18301;51.076;17.046;2023-05-16T12:00:49;99905.38;;;19.17;64.93
31717;BME280;18301;51.076;17.046;2023-05-16T12:05:52;99906.81;;;19.04;65.86
31717;BME280;18301;51.076;17.046;2023-05-16T12:10:54;99906.09;;;18.88;66.56
31717;BME280;18301;51.076;17.046;2023-05-16T12:15:56;99915.53;;;18.77;66.74
31717;BME280;18301;51.076;17.046;2023-05-16T12:20:58;99900.72;;;18.55;66.16
31717;BME280;18301;51.076;17.046;2023-05-16T12:26:01;99897.09;;;18.62;66.85
31717;BME280;18301;51.076;17.046;2023-05-16T12:31:18;99895.69;;;18.75;65.84
31717;BME280;18301;51.076;17.046;2023-05-16T12:36:33;99912.38;;;18.49;67.25
31717;BME280;18301;51.076;17.046;2023-05-16T12:41:41;99917.69;;;18.42;67.62
31717;BME280;18301;51.076;17.046;2023-05-16T12:46:49;99915.00;;;18.26;67.90
31717;BME280;18301;51.076;17.046;2023-05-16T12:51:52;99925.47;;;18.53;67.60
31717;BME280;18301;51.076;17.046;2023-05-16T12:56:54;99921.13;;;18.28;67.06
31717;BME280;18301;51.076;17.046;2023-05-16T13:01:56;99925.09;;;18.01;67.84
31717;BME280;18301;51.076;17.046;2023-05-16T13:06:57;99924.25;;;18.16;67.97
31717;BME280;18301;51.076;17.046;2023-05-16T13:12:00;99928.38;;;17.96;68.63
31717;BME280;18301;51.076;17.046;2023-05-16T13:17:02;99924.75;;;18.20;68.08
31717;BME280;18301;51.076;17.046;2023-05-16T13:22:04;99914.53;;;18.14;67.97
31717;BME280;18301;51.076;17.046;2023-05-16T13:27:06;99927.00;;;17.59;70.51
31717;BME280;18301;51.076;17.046;2023-05-16T13:32:08;99922.53;;;17.42;71.47
31717;BME280;18301;51.076;17.046;2023-05-16T13:37:09;99939.19;;;17.14;73.29
31717;BME280;18301;51.076;17.046;2023-05-16T13:42:11;99940.72;;;17.09;72.81
31717;BME280;18301;51.076;17.046;2023-05-16T13:47:12;99942.31;;;17.44;71.21
31717;BME280;18301;51.076;17.046;2023-05-16T13:52:14;99952.16;;;17.20;71.59
31717;BME280;18301;51.076;17.046;2023-05-16T13:57:16;99954.97;;;16.86;74.42
31717;BME280;18301;51.076;17.046;2023-05-16T14:02:18;99961.34;;;17.03;73.42
31717;BME280;18301;51.076;17.046;2023-05-16T14:07:19;99964.13;;;16.77;74.42
31717;BME280;18301;51.076;17.046;2023-05-16T14:12:21;99954.22;;;16.42;75.44
31717;BME280;18301;51.076;17.046;2023-05-16T14:17:22;99960.97;;;16.29;75.36
31717;BME280;18301;51.076;17.046;2023-05-16T14:22:24;99948.19;;;16.30;75.90
31717;BME280;18301;51.076;17.046;2023-05-16T14:27:25;99938.97;;;16.23;75.95
31717;BME280;18301;51.076;17.046;2023-05-16T14:32:27;99936.13;;;16.32;76.22
31717;BME280;18301;51.076;17.046;2023-05-16T14:37:29;99938.31;;;16.03;77.41
31717;BME280;18301;51.076;17.046;2023-05-16T14:42:30;99931.34;;;16.26;76.76
31717;BME280;18301;51.076;17.046;2023-05-16T14:47:33;99942.09;;;15.66;79.46
31717;BME280;18301;51.076;17.046;2023-05-16T14:52:37;99921.53;;;15.28;81.49
31717;BME280;18301;51.076;17.046;2023-05-16T14:57:39;99915.31;;;15.71;79.54
31717;BME280;18301;51.076;17.046;2023-05-16T15:02:42;99942.94;;;15.84;78.66
31717;BME280;18301;51.076;17.046;2023-05-16T15:07:44;99936.97;;;15.63;79.74
31717;BME280;18301;51.076;17.046;2023-05-16T15:12:45;99939.28;;;15.94;78.41
31717;BME280;18301;51.076;17.046;2023-05-16T15:17:47;99952.69;;;15.69;79.04
31717;BME280;18301;51.076;17.046;2023-05-16T15:22:49;99948.97;;;15.34;80.44
31717;BME280;18301;51.076;17.046;2023-05-16T15:27:50;99968.44;;;15.30;80.81
31717;BME280;18301;51.076;17.046;2023-05-16T15:32:52;99973.44;;;15.52;79.29
31717;BME280;18301;51.076;17.046;2023-05-16T15:37:53;99972.59;;;15.52;79.25
31717;BME280;18301;51.076;17.046;2023-05-16T15:42:56;99971.97;;;15.58;78.42
31717;BME280;18301;51.076;17.046;2023-05-16T15:47:58;99972.81;;;15.58;78.54
31717;BME280;18301;51.076;17.046;2023-05-16T15:52:59;99982.34;;;15.27;79.16
31717;BME280;18301;51.076;17.046;2023-05-16T15:58:01;99981.75;;;15.05;79.81
31717;BME280;18301;51.076;17.046;2023-05-16T16:03:04;99976.53;;;15.22;79.28
31717;BME280;18301;51.076;17.046;2023-05-16T16:08:06;99981.38;;;15.46;78.05
31717;BME280;18301;51.076;17.046;2023-05-16T16:13:07;99961.09;;;15.58;76.84
31717;BME280;18301;51.076;17.046;2023-05-16T16:18:09;99967.75;;;15.46;77.04
31717;BME280;18301;51.076;17.046;2023-05-16T16:23:12;99985.00;;;15.36;77.02
31717;BME280;18301;51.076;17.046;2023-05-16T16:28:13;99973.63;;;15.23;77.94
31717;BME280;18301;51.076;17.046;2023-05-16T16:33:15;99988.84;;;15.16;77.89
31717;BME280;18301;51.076;17.046;2023-05-16T16:38:17;99991.09;;;15.03;79.01
31717;BME280;18301;51.076;17.046;2023-05-16T16:43:19;100005.09;;;14.70;80.55
31717;BME280;18301;51.076;17.046;2023-05-16T16:48:20;99995.75;;;14.83;79.32
31717;BME280;18301;51.076;17.046;2023-05-16T16:53:22;99991.88;;;14.85;79.64
31717;BME280;18301;51.076;17.046;2023-05-16T16:58:23;100005.06;;;14.80;80.31
31717;BME280;18301;51.076;17.046;2023-05-16T17:03:25;100012.53;;;14.68;80.79
31717;BME280;18301;51.076;17.046;2023-05-16T17:08:27;100018.84;;;14.69;80.28
31717;BME280;18301;51.076;17.046;2023-05-16T17:13:28;100021.09;;;14.26;82.93
31717;BME280;18301;51.076;17.046;2023-05-16T17:18:34;100024.94;;;14.24;82.56
31717;BME280;18301;51.076;17.046;2023-05-16T17:23:37;100025.97;;;14.23;82.26
31717;BME280;18301;51.076;17.046;2023-05-16T17:28:38;100033.22;;;14.32;81.81
31717;BME280;18301;51.076;17.046;2023-05-16T17:33:40;100041.25;;;14.14;82.71
31717;BME280;18301;51.076;17.046;2023-05-16T17:38:42;100031.25;;;14.15;82.60
31717;BME280;18301;51.076;17.046;2023-05-16T17:43:44;100040.22;;;14.35;81.62
31717;BME280;18301;51.076;17.046;2023-05-16T17:48:46;100042.69;;;14.09;84.27
31717;BME280;18301;51.076;17.046;2023-05-16T17:53:47;100050.38;;;14.23;83.70
31717;BME280;18301;51.076;17.046;2023-05-16T17:58:50;100055.69;;;14.05;83.77
31717;BME280;18301;51.076;17.046;2023-05-16T18:03:53;100063.25;;;14.01;85.72
31717;BME280;18301;51.076;17.046;2023-05-16T18:08:55;100072.38;;;14.00;85.51
31717;BME280;18301;51.076;17.046;2023-05-16T18:13:56;100067.66;;;14.02;85.81
31717;BME280;18301;51.076;17.046;2023-05-16T18:18:58;100064.53;;;13.78;87.49
31717;BME280;18301;51.076;17.046;2023-05-16T18:24:00;100059.78;;;13.61;88.05
31717;BME280;18301;51.076;17.046;2023-05-16T18:29:01;100059.09;;;13.88;87.04
31717;BME280;18301;51.076;17.046;2023-05-16T18:34:03;100074.41;;;13.98;87.18
31717;BME280;18301;51.076;17.046;2023-05-16T18:39:05;100088.06;;;13.58;88.93
31717;BME280;18301;51.076;17.046;2023-05-16T18:44:07;100081.78;;;13.57;90.33
31717;BME280;18301;51.076;17.046;2023-05-16T18:49:08;100089.78;;;13.69;88.94
31717;BME280;18301;51.076;17.046;2023-05-16T18:54:10;100101.78;;;13.76;87.83
31717;BME280;18301;51.076;17.046;2023-05-16T18:59:11;100103.06;;;13.62;89.36
31717;BME280;18301;51.076;17.046;2023-05-16T19:04:13;100106.31;;;13.46;90.96
31717;BME280;18301;51.076;17.046;2023-05-16T19:09:15;100116.03;;;13.58;89.71
31717;BME280;18301;51.076;17.046;2023-05-16T19:14:16;100116.63;;;13.62;90.18
31717;BME280;18301;51.076;17.046;2023-05-16T19:19:18;100126.25;;;13.45;91.04
31717;BME280;18301;51.076;17.046;2023-05-16T19:24:19;100127.16;;;13.55;90.76
31717;BME280;18301;51.076;17.046;2023-05-16T19:29:21;100139.63;;;13.77;89.64
31717;BME280;18301;51.076;17.046;2023-05-16T19:34:22;100131.81;;;13.34;92.40
31717;BME280;18301;51.076;17.046;2023-05-16T19:39:26;100133.97;;;13.40;92.04
31717;BME280;18301;51.076;17.046;2023-05-16T19:44:28;100141.38;;;13.38;91.97
31717;BME280;18301;51.076;17.046;2023-05-16T19:49:30;100138.19;;;13.33;91.87
31717;BME280;18301;51.076;17.046;2023-05-16T19:54:34;100140.16;;;13.21;92.95
31717;BME280;18301;51.076;17.046;2023-05-16T19:59:36;100140.50;;;13.38;92.17
31717;BME280;18301;51.076;17.046;2023-05-16T20:04:37;100138.19;;;13.33;92.30
31717;BME280;18301;51.076;17.046;2023-05-16T20:09:41;100148.13;;;13.23;92.76
31717;BME280;18301;51.076;17.046;2023-05-16T20:14:43;100140.06;;;13.11;94.10
31717;BME280;18301;51.076;17.046;2023-05-16T20:19:44;100153.50;;;13.13;94.28
31717;BME280;18301;51.076;17.046;2023-05-16T20:24:46;100144.31;;;13.25;93.13
31717;BME280;18301;51.076;17.046;2023-05-16T20:29:48;100143.25;;;13.17;94.26
31717;BME280;18301;51.076;17.046;2023-05-16T20:34:49;100150.84;;;13.23;93.96
31717;BME280;18301;51.076;17.046;2023-05-16T20:39:52;100155.25;;;13.24;94.06
31717;BME280;18301;51.076;17.046;2023-05-16T20:44:54;100156.63;;;13.08;93.89
31717;BME280;18301;51.076;17.046;2023-05-16T20:49:55;100144.06;;;13.07;91.92
31717;BME280;18301;51.076;17.046;2023-05-16T20:54:58;100157.72;;;12.96;92.11
31717;BME280;18301;51.076;17.046;2023-05-16T21:00:02;100167.88;;;12.83;93.18
31717;BME280;18301;51.076;17.046;2023-05-16T21:05:04;100176.22;;;12.91;92.55
31717;BME280;18301;51.076;17.046;2023-05-16T21:10:25;100188.22;;;12.98;92.06
31717;BME280;18301;51.076;17.046;2023-05-16T21:15:27;100179.84;;;12.80;93.83
31717;BME280;18301;51.076;17.046;2023-05-16T21:20:29;100177.53;;;12.97;93.12
31717;BME280;18301;51.076;17.046;2023-05-16T21:25:31;100175.09;;;12.94;92.85
31717;BME280;18301;51.076;17.046;2023-05-16T21:30:32;100188.09;;;12.79;93.60
31717;BME280;18301;51.076;17.046;2023-05-16T21:35:34;100177.22;;;12.69;94.49
31717;BME280;18301;51.076;17.046;2023-05-16T21:40:35;100172.31;;;12.42;95.62
31717;BME280;18301;51.076;17.046;2023-05-16T21:45:37;100174.81;;;12.55;95.14
31717;BME280;18301;51.076;17.046;2023-05-16T21:50:40;100176.81;;;12.74;93.74
31717;BME280;18301;51.076;17.046;2023-05-16T21:55:44;100174.94;;;12.74;93.27
31717;BME280;18301;51.076;17.046;2023-05-16T22:01:10;100179.50;;;12.74;93.21
31717;BME280;18301;51.076;17.046;2023-05-16T22:06:12;100186.75;;;12.52;94.88
31717;BME280;18301;51.076;17.046;2023-05-16T22:11:13;100181.94;;;12.56;94.69
31717;BME280;18301;51.076;17.046;2023-05-16T22:16:15;100177.19;;;12.48;95.07
31717;BME280;18301;51.076;17.046;2023-05-16T22:21:16;100192.69;;;12.46;95.37
31717;BME280;18301;51.076;17.046;2023-05-16T22:26:18;100175.94;;;12.52;95.04
31717;BME280;18301;51.076;17.046;2023-05-16T22:31:19;100185.59;;;12.45;95.67
31717;BME280;18301;51.076;17.046;2023-05-16T22:36:21;100184.72;;;12.44;95.02
31717;BME280;18301;51.076;17.046;2023-05-16T22:41:22;100182.41;;;12.40;95.75
31717;BME280;18301;51.076;17.046;2023-05-16T22:46:24;100183.88;;;12.44;95.33
31717;BME280;18301;51.076;17.046;2023-05-16T22:51:26;100186.38;;;12.36;96.77
31717;BME280;18301;51.076;17.046;2023-05-16T22:56:27;100184.19;;;12.30;96.47
31717;BME280;18301;51.076;17.046;2023-05-16T23:01:29;100183.97;;;12.21;97.25
31717;BME280;18301;51.076;17.046;2023-05-16T23:06:30;100181.69;;;12.38;96.04
31717;BME280;18301;51.076;17.046;2023-05-16T23:11:32;100194.59;;;12.34;96.00
31717;BME280;18301;51.076;17.046;2023-05-16T23:16:34;100188.81;;;12.39;96.70
31717;BME280;18301;51.076;17.046;2023-05-16T23:21:35;100190.47;;;12.51;95.61
31717;BME280;18301;51.076;17.046;2023-05-16T23:26:37;100185.94;;;12.19;97.50
31717;BME280;18301;51.076;17.046;2023-05-16T23:31:39;100178.81;;;12.18;96.99
31717;BME280;18301;51.076;17.046;2023-05-16T23:36:41;100176.84;;;12.20;97.29
31717;BME280;18301;51.076;17.046;2023-05-16T23:41:42;100187.66;;;12.20;97.39
31717;BME280;18301;51.076;17.046;2023-05-16T23:46:44;100195.28;;;12.15;97.50
31717;BME280;18301;51.076;17.046;2023-05-16T23:51:45;100200.50;;;12.07;97.95
31717;BME280;18301;51.076;17.046;2023-05-16T23:56:58;100194.06;;;12.19;97.41
